sensor_id;sensor_type;location;lat;lon;timestamp;pressure;altitude;pressure_sealevel;temperature;humidity
80118;BME280;69424;48.770;-1.564;2023-11-22T00:00:12;102918.48;;;10.60;83.97
80118;BME280;69424;48.770;-1.564;2023-11-22T00:01:10;102919.20;;;10.60;83.93
80118;BME280;69424;48.770;-1.564;2023-11-22T00:01:50;102916.38;;;10.60;83.86
80118;BME280;69424;48.770;-1.564;2023-11-22T00:02:23;102917.97;;;10.60;83.93
80118;BME280;69424;48.770;-1.564;2023-11-22T00:03:00;102915.63;;;10.60;83.82
80118;BME280;69424;48.770;-1.564;2023-11-22T00:03:33;102913.34;;;10.60;83.64
80118;BME280;69424;48.770;-1.564;2023-11-22T00:04:07;102914.23;;;10.60;83.71
80118;BME280;69424;48.770;-1.564;2023-11-22T00:04:40;102911.97;;;10.61;83.69
80118;BME280;69424;48.770;-1.564;2023-11-22T00:05:13;102913.02;;;10.61;83.81
80118;BME280;69424;48.770;-1.564;2023-11-22T00:05:46;102909.66;;;10.61;83.66
80118;BME280;69424;48.770;-1.564;2023-11-22T00:06:19;102910.03;;;10.61;83.54
80118;BME280;69424;48.770;-1.564;2023-11-22T00:06:55;102908.63;;;10.61;83.54
80118;BME280;69424;48.770;-1.564;2023-11-22T00:07:28;102911.10;;;10.61;83.54
80118;BME280;69424;48.770;-1.564;2023-11-22T00:08:02;102914.13;;;10.62;83.67
80118;BME280;69424;48.770;-1.564;2023-11-22T00:08:35;102914.65;;;10.62;83.66
80118;BME280;69424;48.770;-1.564;2023-11-22T00:09:08;102915.00;;;10.61;83.43
80118;BME280;69424;48.770;-1.564;2023-11-22T00:09:42;102913.92;;;10.61;83.49
80118;BME280;69424;48.770;-1.564;2023-11-22T00:10:16;102915.70;;;10.61;83.33
80118;BME280;69424;48.770;-1.564;2023-11-22T00:10:49;102914.92;;;10.60;83.47
80118;BME280;69424;48.770;-1.564;2023-11-22T00:11:22;102914.93;;;10.60;83.48
80118;BME280;69424;48.770;-1.564;2023-11-22T00:11:55;102919.67;;;10.59;83.35
80118;BME280;69424;48.770;-1.564;2023-11-22T00:12:28;102918.38;;;10.58;83.27
80118;BME280;69424;48.770;-1.564;2023-11-22T00:13:09;102921.10;;;10.55;83.13
80118;BME280;69424;48.770;-1.564;2023-11-22T00:13:42;102922.41;;;10.53;83.17
80118;BME280;69424;48.770;-1.564;2023-11-22T00:14:15;102925.85;;;10.51;83.13
80118;BME280;69424;48.770;-1.564;2023-11-22T00:14:48;102922.39;;;10.49;82.99
80118;BME280;69424;48.770;-1.564;2023-11-22T00:15:22;102922.11;;;10.47;83.09
80118;BME280;69424;48.770;-1.564;2023-11-22T00:15:55;102925.41;;;10.45;83.02
80118;BME280;69424;48.770;-1.564;2023-11-22T00:16:29;102921.80;;;10.43;83.08
80118;BME280;69424;48.770;-1.564;2023-11-22T00:17:03;102921.80;;;10.43;83.18
80118;BME280;69424;48.770;-1.564;2023-11-22T00:17:37;102921.56;;;10.41;83.06
80118;BME280;69424;48.770;-1.564;2023-11-22T00:18:11;102921.55;;;10.41;83.05
80118;BME280;69424;48.770;-1.564;2023-11-22T00:18:45;102923.84;;;10.41;83.11
80118;BME280;69424;48.770;-1.564;2023-11-22T00:19:19;102923.66;;;10.41;83.07
80118;BME280;69424;48.770;-1.564;2023-11-22T00:19:55;102924.90;;;10.41;83.03
80118;BME280;69424;48.770;-1.564;2023-11-22T00:20:28;102923.15;;;10.41;83.15
80118;BME280;69424;48.770;-1.564;2023-11-22T00:21:01;102926.34;;;10.41;83.18
80118;BME280;69424;48.770;-1.564;2023-11-22T00:21:34;102927.75;;;10.41;83.30
80118;BME280;69424;48.770;-1.564;2023-11-22T00:22:08;102927.59;;;10.42;83.42
80118;BME280;69424;48.770;-1.564;2023-11-22T00:22:46;102926.55;;;10.43;83.44
80118;BME280;69424;48.770;-1.564;2023-11-22T00:23:20;102926.95;;;10.44;83.55
80118;BME280;69424;48.770;-1.564;2023-11-22T00:23:53;102927.17;;;10.45;83.55
80118;BME280;69424;48.770;-1.564;2023-11-22T00:24:28;102926.12;;;10.45;83.46
80118;BME280;69424;48.770;-1.564;2023-11-22T00:25:01;102928.10;;;10.46;83.45
80118;BME280;69424;48.770;-1.564;2023-11-22T00:25:34;102933.79;;;10.47;83.68
80118;BME280;69424;48.770;-1.564;2023-11-22T00:26:07;102931.88;;;10.47;83.47
80118;BME280;69424;48.770;-1.564;2023-11-22T00:26:42;102930.95;;;10.46;83.35
80118;BME280;69424;48.770;-1.564;2023-11-22T00:27:16;102929.98;;;10.44;83.27
80118;BME280;69424;48.770;-1.564;2023-11-22T00:27:49;102932.58;;;10.43;83.15
80118;BME280;69424;48.770;-1.564;2023-11-22T00:28:23;102934.09;;;10.41;83.12
80118;BME280;69424;48.770;-1.564;2023-11-22T00:28:56;102936.48;;;10.39;83.09
80118;BME280;69424;48.770;-1.564;2023-11-22T00:29:29;102935.89;;;10.38;83.01
80118;BME280;69424;48.770;-1.564;2023-11-22T00:30:35;102936.02;;;10.37;82.97
80118;BME280;69424;48.770;-1.564;2023-11-22T00:31:09;102934.80;;;10.33;83.05
80118;BME280;69424;48.770;-1.564;2023-11-22T00:31:42;102937.45;;;10.34;83.02
80118;BME280;69424;48.770;-1.564;2023-11-22T00:32:18;102938.73;;;10.34;83.01
80118;BME280;69424;48.770;-1.564;2023-11-22T00:32:52;102937.48;;;10.34;83.02
80118;BME280;69424;48.770;-1.564;2023-11-22T00:33:25;102936.05;;;10.34;82.93
80118;BME280;69424;48.770;-1.564;2023-11-22T00:33:59;102937.48;;;10.34;83.02
80118;BME280;69424;48.770;-1.564;2023-11-22T00:34:33;102938.59;;;10.35;83.09
80118;BME280;69424;48.770;-1.564;2023-11-22T00:35:07;102940.76;;;10.36;83.06
80118;BME280;69424;48.770;-1.564;2023-11-22T00:35:41;102940.81;;;10.37;82.96
80118;BME280;69424;48.770;-1.564;2023-11-22T00:36:14;102944.37;;;10.38;82.80
80118;BME280;69424;48.770;-1.564;2023-11-22T00:36:49;102944.73;;;10.38;82.90
80118;BME280;69424;48.770;-1.564;2023-11-22T00:37:23;102949.37;;;10.39;82.71
80118;BME280;69424;48.770;-1.564;2023-11-22T00:37:57;102947.61;;;10.39;82.87
80118;BME280;69424;48.770;-1.564;2023-11-22T00:38:31;102951.67;;;10.39;82.79
80118;BME280;69424;48.770;-1.564;2023-11-22T00:39:04;102948.66;;;10.39;82.74
80118;BME280;69424;48.770;-1.564;2023-11-22T00:39:38;102950.59;;;10.38;82.76
80118;BME280;69424;48.770;-1.564;2023-11-22T00:40:11;102944.75;;;10.38;82.97
80118;BME280;69424;48.770;-1.564;2023-11-22T00:40:45;102947.80;;;10.39;82.93
80118;BME280;69424;48.770;-1.564;2023-11-22T00:41:18;102946.17;;;10.38;82.93
80118;BME280;69424;48.770;-1.564;2023-11-22T00:41:51;102944.04;;;10.38;82.74
80118;BME280;69424;48.770;-1.564;2023-11-22T00:42:26;102944.89;;;10.38;82.58
80118;BME280;69424;48.770;-1.564;2023-11-22T00:43:00;102947.16;;;10.37;82.54
80118;BME280;69424;48.770;-1.564;2023-11-22T00:43:33;102945.22;;;10.37;82.60
80118;BME280;69424;48.770;-1.564;2023-11-22T00:44:06;102944.53;;;10.37;82.95
80118;BME280;69424;48.770;-1.564;2023-11-22T00:44:39;102944.20;;;10.38;83.06
80118;BME280;69424;48.770;-1.564;2023-11-22T00:45:12;102945.48;;;10.39;82.85
80118;BME280;69424;48.770;-1.564;2023-11-22T00:45:46;102945.83;;;10.38;82.77
80118;BME280;69424;48.770;-1.564;2023-11-22T00:46:19;102942.84;;;10.39;82.67
80118;BME280;69424;48.770;-1.564;2023-11-22T00:46:52;102946.19;;;10.39;82.77
80118;BME280;69424;48.770;-1.564;2023-11-22T00:48:11;102947.21;;;10.38;82.60
80118;BME280;69424;48.770;-1.564;2023-11-22T00:48:45;102944.02;;;10.37;82.49
80118;BME280;69424;48.770;-1.564;2023-11-22T00:49:18;102945.42;;;10.38;82.54
80118;BME280;69424;48.770;-1.564;2023-11-22T00:49:51;102945.92;;;10.37;82.39
80118;BME280;69424;48.770;-1.564;2023-11-22T00:50:25;102945.77;;;10.37;82.43
80118;BME280;69424;48.770;-1.564;2023-11-22T00:50:59;102942.22;;;10.37;82.43
80118;BME280;69424;48.770;-1.564;2023-11-22T00:51:32;102944.17;;;10.37;82.37
80118;BME280;69424;48.770;-1.564;2023-11-22T00:52:05;102945.90;;;10.36;82.38
80118;BME280;69424;48.770;-1.564;2023-11-22T00:52:39;102944.48;;;10.36;82.42
80118;BME280;69424;48.770;-1.564;2023-11-22T00:53:17;102940.38;;;10.35;82.52
80118;BME280;69424;48.770;-1.564;2023-11-22T00:53:51;102938.59;;;10.35;82.16
80118;BME280;69424;48.770;-1.564;2023-11-22T00:54:25;102938.55;;;10.34;82.12
80118;BME280;69424;48.770;-1.564;2023-11-22T00:54:59;102936.38;;;10.33;81.99
80118;BME280;69424;48.770;-1.564;2023-11-22T00:55:32;102939.20;;;10.33;82.12
80118;BME280;69424;48.770;-1.564;2023-11-22T00:56:06;102935.92;;;10.32;82.14
80118;BME280;69424;48.770;-1.564;2023-11-22T00:56:40;102931.83;;;10.31;82.08
80118;BME280;69424;48.770;-1.564;2023-11-22T00:57:13;102934.45;;;10.30;81.96
80118;BME280;69424;48.770;-1.564;2023-11-22T00:57:46;102931.59;;;10.30;82.15
80118;BME280;69424;48.770;-1.564;2023-11-22T00:58:19;102934.29;;;10.31;82.00
80118;BME280;69424;48.770;-1.564;2023-11-22T00:58:54;102933.23;;;10.31;81.92
80118;BME280;69424;48.770;-1.564;2023-11-22T00:59:28;102931.45;;;10.31;81.84
80118;BME280;69424;48.770;-1.564;2023-11-22T01:00:02;102935.71;;;10.31;82.01
80118;BME280;69424;48.770;-1.564;2023-11-22T01:00:37;102931.85;;;10.31;81.83
80118;BME280;69424;48.770;-1.564;2023-11-22T01:01:11;102938.80;;;10.32;81.78
80118;BME280;69424;48.770;-1.564;2023-11-22T01:01:44;102934.55;;;10.32;81.69
80118;BME280;69424;48.770;-1.564;2023-11-22T01:02:20;102939.18;;;10.32;81.65
80118;BME280;69424;48.770;-1.564;2023-11-22T01:02:54;102938.83;;;10.32;81.63
80118;BME280;69424;48.770;-1.564;2023-11-22T01:03:30;102937.58;;;10.33;81.56
80118;BME280;69424;48.770;-1.564;2023-11-22T01:04:03;102939.56;;;10.33;81.68
80118;BME280;69424;48.770;-1.564;2023-11-22T01:04:37;102941.70;;;10.33;81.67
80118;BME280;69424;48.770;-1.564;2023-11-22T01:05:11;102940.64;;;10.33;81.55
80118;BME280;69424;48.770;-1.564;2023-11-22T01:06:16;102942.38;;;10.33;81.53
80118;BME280;69424;48.770;-1.564;2023-11-22T01:06:52;102943.34;;;10.31;81.57
80118;BME280;69424;48.770;-1.564;2023-11-22T01:07:25;102943.98;;;10.30;81.46
80118;BME280;69424;48.770;-1.564;2023-11-22T01:07:58;102948.54;;;10.29;81.54
80118;BME280;69424;48.770;-1.564;2023-11-22T01:08:32;102948.80;;;10.27;81.69
80118;BME280;69424;48.770;-1.564;2023-11-22T01:09:05;102950.33;;;10.25;81.66
80118;BME280;69424;48.770;-1.564;2023-11-22T01:09:41;102951.67;;;10.24;81.59
80118;BME280;69424;48.770;-1.564;2023-11-22T01:10:15;102952.55;;;10.24;81.76
80118;BME280;69424;48.770;-1.564;2023-11-22T01:10:48;102953.79;;;10.24;81.69
80118;BME280;69424;48.770;-1.564;2023-11-22T01:11:22;102952.55;;;10.24;81.68
80118;BME280;69424;48.770;-1.564;2023-11-22T01:11:55;102949.55;;;10.24;81.88
80118;BME280;69424;48.770;-1.564;2023-11-22T01:12:28;102949.95;;;10.25;81.91
80118;BME280;69424;48.770;-1.564;2023-11-22T01:13:03;102947.86;;;10.25;81.91
80118;BME280;69424;48.770;-1.564;2023-11-22T01:13:37;102949.33;;;10.27;81.91
80118;BME280;69424;48.770;-1.564;2023-11-22T01:14:14;102948.30;;;10.27;81.62
80118;BME280;69424;48.770;-1.564;2023-11-22T01:14:47;102950.10;;;10.28;81.83
80118;BME280;69424;48.770;-1.564;2023-11-22T01:15:24;102950.67;;;10.29;81.72
80118;BME280;69424;48.770;-1.564;2023-11-22T01:16:00;102952.65;;;10.30;81.66
80118;BME280;69424;48.770;-1.564;2023-11-22T01:16:34;102954.83;;;10.31;81.50
80118;BME280;69424;48.770;-1.564;2023-11-22T01:17:10;102953.46;;;10.32;81.59
80118;BME280;69424;48.770;-1.564;2023-11-22T01:17:43;102953.84;;;10.32;81.51
80118;BME280;69424;48.770;-1.564;2023-11-22T01:18:16;102951.59;;;10.33;81.40
80118;BME280;69424;48.770;-1.564;2023-11-22T01:18:49;102954.98;;;10.34;81.45
80118;BME280;69424;48.770;-1.564;2023-11-22T01:19:23;102953.58;;;10.34;81.57
80118;BME280;69424;48.770;-1.564;2023-11-22T01:19:57;102953.60;;;10.34;81.58
80118;BME280;69424;48.770;-1.564;2023-11-22T01:20:31;102953.41;;;10.34;81.60
80118;BME280;69424;48.770;-1.564;2023-11-22T01:21:05;102956.44;;;10.35;81.67
80118;BME280;69424;48.770;-1.564;2023-11-22T01:21:38;102957.70;;;10.35;81.67
80118;BME280;69424;48.770;-1.564;2023-11-22T01:22:11;102957.86;;;10.35;81.52
80118;BME280;69424;48.770;-1.564;2023-11-22T01:22:44;102957.50;;;10.35;81.50
80118;BME280;69424;48.770;-1.564;2023-11-22T01:23:18;102953.02;;;10.33;81.44
80118;BME280;69424;48.770;-1.564;2023-11-22T01:23:58;102954.61;;;10.33;81.62
80118;BME280;69424;48.770;-1.564;2023-11-22T01:24:33;102953.39;;;10.33;81.61
80118;BME280;69424;48.770;-1.564;2023-11-22T01:25:09;102948.08;;;10.33;81.65
80118;BME280;69424;48.770;-1.564;2023-11-22T01:25:42;102943.27;;;10.33;81.74
80118;BME280;69424;48.770;-1.564;2023-11-22T01:26:18;102945.52;;;10.36;81.78
80118;BME280;69424;48.770;-1.564;2023-11-22T01:26:55;102942.42;;;10.38;81.75
80118;BME280;69424;48.770;-1.564;2023-11-22T01:27:29;102947.05;;;10.38;81.40
80118;BME280;69424;48.770;-1.564;2023-11-22T01:28:04;102949.57;;;10.39;81.40
80118;BME280;69424;48.770;-1.564;2023-11-22T01:28:39;102948.33;;;10.39;81.44
80118;BME280;69424;48.770;-1.564;2023-11-22T01:29:17;102954.61;;;10.41;81.43
80118;BME280;69424;48.770;-1.564;2023-11-22T01:29:51;102954.08;;;10.41;81.29
80118;BME280;69424;48.770;-1.564;2023-11-22T01:30:25;102955.38;;;10.42;81.44
80118;BME280;69424;48.770;-1.564;2023-11-22T01:30:58;102957.02;;;10.44;81.43
80118;BME280;69424;48.770;-1.564;2023-11-22T01:31:32;102954.38;;;10.44;81.44
80118;BME280;69424;48.770;-1.564;2023-11-22T01:32:05;102954.43;;;10.45;81.42
80118;BME280;69424;48.770;-1.564;2023-11-22T01:32:39;102956.02;;;10.45;81.34
80118;BME280;69424;48.770;-1.564;2023-11-22T01:33:15;102959.62;;;10.47;81.40
80118;BME280;69424;48.770;-1.564;2023-11-22T01:33:48;102956.20;;;10.45;81.37
80118;BME280;69424;48.770;-1.564;2023-11-22T01:34:22;102959.76;;;10.46;81.40
80118;BME280;69424;48.770;-1.564;2023-11-22T01:34:58;102959.60;;;10.46;81.39
80118;BME280;69424;48.770;-1.564;2023-11-22T01:35:32;102961.54;;;10.46;81.32
80118;BME280;69424;48.770;-1.564;2023-11-22T01:36:07;102961.52;;;10.46;81.17
80118;BME280;69424;48.770;-1.564;2023-11-22T01:36:44;102957.60;;;10.45;80.90
80118;BME280;69424;48.770;-1.564;2023-11-22T01:37:19;102961.53;;;10.45;80.87
80118;BME280;69424;48.770;-1.564;2023-11-22T01:37:55;102960.96;;;10.45;81.15
80118;BME280;69424;48.770;-1.564;2023-11-22T01:38:29;102961.69;;;10.45;81.01
80118;BME280;69424;48.770;-1.564;2023-11-22T01:39:03;102958.33;;;10.45;80.94
80118;BME280;69424;48.770;-1.564;2023-11-22T01:39:39;102962.42;;;10.46;80.96
80118;BME280;69424;48.770;-1.564;2023-11-22T01:40:13;102956.02;;;10.45;80.89
80118;BME280;69424;48.770;-1.564;2023-11-22T01:40:51;102956.92;;;10.45;80.84
80118;BME280;69424;48.770;-1.564;2023-11-22T01:41:25;102957.11;;;10.46;80.81
80118;BME280;69424;48.770;-1.564;2023-11-22T01:41:59;102957.64;;;10.46;80.79
80118;BME280;69424;48.770;-1.564;2023-11-22T01:42:34;102957.45;;;10.45;80.57
80118;BME280;69424;48.770;-1.564;2023-11-22T01:43:19;102956.91;;;10.45;80.77
80118;BME280;69424;48.770;-1.564;2023-11-22T01:43:53;102957.23;;;10.44;80.98
80118;BME280;69424;48.770;-1.564;2023-11-22T01:44:26;102960.04;;;10.44;80.92
80118;BME280;69424;48.770;-1.564;2023-11-22T01:45:00;102957.00;;;10.43;80.67
80118;BME280;69424;48.770;-1.564;2023-11-22T01:45:34;102954.11;;;10.42;80.68
80118;BME280;69424;48.770;-1.564;2023-11-22T01:46:10;102959.94;;;10.41;80.76
80118;BME280;69424;48.770;-1.564;2023-11-22T01:46:52;102958.41;;;10.39;80.96
80118;BME280;69424;48.770;-1.564;2023-11-22T01:47:26;102958.56;;;10.38;80.96
80118;BME280;69424;48.770;-1.564;2023-11-22T01:48:00;102955.86;;;10.38;80.96
80118;BME280;69424;48.770;-1.564;2023-11-22T01:48:34;102955.65;;;10.37;81.05
80118;BME280;69424;48.770;-1.564;2023-11-22T01:49:10;102956.16;;;10.36;81.03
80118;BME280;69424;48.770;-1.564;2023-11-22T01:49:43;102956.54;;;10.37;81.23
80118;BME280;69424;48.770;-1.564;2023-11-22T01:50:17;102957.58;;;10.36;80.93
80118;BME280;69424;48.770;-1.564;2023-11-22T01:50:51;102956.67;;;10.36;81.03
80118;BME280;69424;48.770;-1.564;2023-11-22T01:51:25;102956.49;;;10.36;81.07
80118;BME280;69424;48.770;-1.564;2023-11-22T01:51:58;102956.33;;;10.36;80.92
80118;BME280;69424;48.770;-1.564;2023-11-22T01:52:33;102955.83;;;10.37;81.02
80118;BME280;69424;48.770;-1.564;2023-11-22T01:53:07;102960.95;;;10.37;80.98
80118;BME280;69424;48.770;-1.564;2023-11-22T01:53:42;102958.30;;;10.37;80.64
80118;BME280;69424;48.770;-1.564;2023-11-22T01:54:16;102960.07;;;10.37;80.68
80118;BME280;69424;48.770;-1.564;2023-11-22T01:54:52;102959.36;;;10.37;80.68
80118;BME280;69424;48.770;-1.564;2023-11-22T01:55:25;102962.39;;;10.38;80.59
80118;BME280;69424;48.770;-1.564;2023-11-22T01:55:59;102958.10;;;10.36;80.25
80118;BME280;69424;48.770;-1.564;2023-11-22T01:56:35;102960.23;;;10.37;80.33
80118;BME280;69424;48.770;-1.564;2023-11-22T01:57:09;102958.10;;;10.36;80.46
80118;BME280;69424;48.770;-1.564;2023-11-22T01:57:42;102963.39;;;10.36;80.44
80118;BME280;69424;48.770;-1.564;2023-11-22T01:58:16;102963.05;;;10.36;80.73
80118;BME280;69424;48.770;-1.564;2023-11-22T01:58:50;102965.37;;;10.37;80.56
80118;BME280;69424;48.770;-1.564;2023-11-22T01:59:25;102962.88;;;10.36;80.57
80118;BME280;69424;48.770;-1.564;2023-11-22T02:00:03;102961.48;;;10.37;80.67
80118;BME280;69424;48.770;-1.564;2023-11-22T02:00:49;102962.55;;;10.37;80.73
80118;BME280;69424;48.770;-1.564;2023-11-22T02:01:22;102964.13;;;10.37;80.55
80118;BME280;69424;48.770;-1.564;2023-11-22T02:01:56;102961.40;;;10.35;80.29
80118;BME280;69424;48.770;-1.564;2023-11-22T02:02:30;102960.13;;;10.34;80.02
80118;BME280;69424;48.770;-1.564;2023-11-22T02:03:03;102962.73;;;10.33;80.13
80118;BME280;69424;48.770;-1.564;2023-11-22T02:03:37;102961.84;;;10.33;80.18
80118;BME280;69424;48.770;-1.564;2023-11-22T02:04:12;102962.52;;;10.33;79.99
80118;BME280;69424;48.770;-1.564;2023-11-22T02:04:45;102960.79;;;10.33;80.10
80118;BME280;69424;48.770;-1.564;2023-11-22T02:05:18;102959.70;;;10.33;80.07
80118;BME280;69424;48.770;-1.564;2023-11-22T02:05:51;102960.79;;;10.33;80.13
80118;BME280;69424;48.770;-1.564;2023-11-22T02:06:27;102961.33;;;10.33;80.04
80118;BME280;69424;48.770;-1.564;2023-11-22T02:07:04;102958.32;;;10.33;80.14
80118;BME280;69424;48.770;-1.564;2023-11-22T02:07:38;102962.94;;;10.34;80.16
80118;BME280;69424;48.770;-1.564;2023-11-22T02:08:13;102960.15;;;10.34;80.36
80118;BME280;69424;48.770;-1.564;2023-11-22T02:08:46;102959.10;;;10.35;80.22
80118;BME280;69424;48.770;-1.564;2023-11-22T02:09:19;102959.46;;;10.35;80.17
80118;BME280;69424;48.770;-1.564;2023-11-22T02:09:53;102961.41;;;10.35;80.18
80118;BME280;69424;48.770;-1.564;2023-11-22T02:10:26;102959.27;;;10.35;80.20
80118;BME280;69424;48.770;-1.564;2023-11-22T02:11:00;102962.29;;;10.35;80.27
80118;BME280;69424;48.770;-1.564;2023-11-22T02:11:35;102961.88;;;10.34;80.21
80118;BME280;69424;48.770;-1.564;2023-11-22T02:12:08;102964.88;;;10.34;80.44
80118;BME280;69424;48.770;-1.564;2023-11-22T02:12:42;102965.45;;;10.31;80.07
80118;BME280;69424;48.770;-1.564;2023-11-22T02:13:15;102964.13;;;10.30;80.13
80118;BME280;69424;48.770;-1.564;2023-11-22T02:13:48;102965.47;;;10.28;80.09
80118;BME280;69424;48.770;-1.564;2023-11-22T02:14:24;102965.55;;;10.25;80.39
80118;BME280;69424;48.770;-1.564;2023-11-22T02:14:57;102964.05;;;10.24;80.42
80118;BME280;69424;48.770;-1.564;2023-11-22T02:15:31;102967.40;;;10.23;80.28
80118;BME280;69424;48.770;-1.564;2023-11-22T02:16:04;102968.07;;;10.23;80.19
80118;BME280;69424;48.770;-1.564;2023-11-22T02:16:38;102968.97;;;10.23;80.26
80118;BME280;69424;48.770;-1.564;2023-11-22T02:17:12;102967.33;;;10.22;79.80
80118;BME280;69424;48.770;-1.564;2023-11-22T02:17:45;102968.94;;;10.23;79.91
80118;BME280;69424;48.770;-1.564;2023-11-22T02:18:19;102968.27;;;10.23;80.23
80118;BME280;69424;48.770;-1.564;2023-11-22T02:18:52;102968.43;;;10.23;79.76
80118;BME280;69424;48.770;-1.564;2023-11-22T02:19:25;102972.73;;;10.24;79.84
80118;BME280;69424;48.770;-1.564;2023-11-22T02:19:58;102973.59;;;10.24;79.82
80118;BME280;69424;48.770;-1.564;2023-11-22T02:20:31;102974.32;;;10.24;79.91
80118;BME280;69424;48.770;-1.564;2023-11-22T02:21:05;102972.55;;;10.24;80.04
80118;BME280;69424;48.770;-1.564;2023-11-22T02:21:39;102970.62;;;10.25;80.05
80118;BME280;69424;48.770;-1.564;2023-11-22T02:22:12;102975.98;;;10.25;80.08
80118;BME280;69424;48.770;-1.564;2023-11-22T02:22:46;102977.95;;;10.26;80.06
80118;BME280;69424;48.770;-1.564;2023-11-22T02:23:20;102980.57;;;10.26;79.97
80118;BME280;69424;48.770;-1.564;2023-11-22T02:23:53;102976.84;;;10.25;79.70
80118;BME280;69424;48.770;-1.564;2023-11-22T02:24:26;102977.17;;;10.25;79.71
80118;BME280;69424;48.770;-1.564;2023-11-22T02:24:59;102981.91;;;10.24;79.79
80118;BME280;69424;48.770;-1.564;2023-11-22T02:25:33;102984.88;;;10.23;79.41
80118;BME280;69424;48.770;-1.564;2023-11-22T02:26:06;102983.44;;;10.22;79.52
80118;BME280;69424;48.770;-1.564;2023-11-22T02:26:48;102984.44;;;10.21;79.54
80118;BME280;69424;48.770;-1.564;2023-11-22T02:27:21;102985.45;;;10.20;79.71
80118;BME280;69424;48.770;-1.564;2023-11-22T02:27:55;102985.95;;;10.19;79.71
80118;BME280;69424;48.770;-1.564;2023-11-22T02:28:28;102987.00;;;10.19;79.55
80118;BME280;69424;48.770;-1.564;2023-11-22T02:29:01;102983.29;;;10.19;79.56
80118;BME280;69424;48.770;-1.564;2023-11-22T02:29:35;102987.86;;;10.19;79.62
80118;BME280;69424;48.770;-1.564;2023-11-22T02:30:08;102984.50;;;10.19;79.63
80118;BME280;69424;48.770;-1.564;2023-11-22T02:30:41;102984.67;;;10.19;79.52
80118;BME280;69424;48.770;-1.564;2023-11-22T02:31:14;102986.59;;;10.18;79.64
80118;BME280;69424;48.770;-1.564;2023-11-22T02:31:48;102984.48;;;10.18;79.52
80118;BME280;69424;48.770;-1.564;2023-11-22T02:32:21;102985.77;;;10.19;79.60
80118;BME280;69424;48.770;-1.564;2023-11-22T02:32:54;102986.50;;;10.20;79.48
80118;BME280;69424;48.770;-1.564;2023-11-22T02:33:27;102987.41;;;10.20;79.37
80118;BME280;69424;48.770;-1.564;2023-11-22T02:34:00;102989.00;;;10.20;79.37
80118;BME280;69424;48.770;-1.564;2023-11-22T02:34:33;102988.30;;;10.20;79.19
80118;BME280;69424;48.770;-1.564;2023-11-22T02:35:06;102991.64;;;10.20;79.30
80118;BME280;69424;48.770;-1.564;2023-11-22T02:35:40;102993.77;;;10.20;79.21
80118;BME280;69424;48.770;-1.564;2023-11-22T02:36:15;102991.45;;;10.20;79.11
80118;BME280;69424;48.770;-1.564;2023-11-22T02:36:48;102991.59;;;10.19;79.09
80118;BME280;69424;48.770;-1.564;2023-11-22T02:37:34;102992.14;;;10.19;79.20
80118;BME280;69424;48.770;-1.564;2023-11-22T02:38:08;102991.19;;;10.18;79.03
80118;BME280;69424;48.770;-1.564;2023-11-22T02:38:41;102990.33;;;10.18;79.25
80118;BME280;69424;48.770;-1.564;2023-11-22T02:39:17;102994.38;;;10.18;79.25
80118;BME280;69424;48.770;-1.564;2023-11-22T02:40:46;102989.71;;;10.17;79.09
80118;BME280;69424;48.770;-1.564;2023-11-22T02:41:20;102990.94;;;10.17;79.08
80118;BME280;69424;48.770;-1.564;2023-11-22T02:41:53;102993.07;;;10.17;79.03
80118;BME280;69424;48.770;-1.564;2023-11-22T02:42:27;102996.79;;;10.17;79.10
80118;BME280;69424;48.770;-1.564;2023-11-22T02:43:00;102999.48;;;10.18;79.01
80118;BME280;69424;48.770;-1.564;2023-11-22T02:43:38;102997.02;;;10.18;78.87
80118;BME280;69424;48.770;-1.564;2023-11-22T02:44:11;102999.56;;;10.19;78.79
80118;BME280;69424;48.770;-1.564;2023-11-22T02:44:50;103001.89;;;10.20;78.97
80118;BME280;69424;48.770;-1.564;2023-11-22T02:45:26;103000.34;;;10.21;78.83
80118;BME280;69424;48.770;-1.564;2023-11-22T02:46:00;103002.12;;;10.21;78.80
80118;BME280;69424;48.770;-1.564;2023-11-22T02:46:33;102996.45;;;10.21;78.71
80118;BME280;69424;48.770;-1.564;2023-11-22T02:47:06;102998.55;;;10.20;78.78
80118;BME280;69424;48.770;-1.564;2023-11-22T02:47:40;102998.69;;;10.19;78.62
80118;BME280;69424;48.770;-1.564;2023-11-22T02:48:13;102995.45;;;10.18;78.50
80118;BME280;69424;48.770;-1.564;2023-11-22T02:48:47;102996.04;;;10.19;78.60
80118;BME280;69424;48.770;-1.564;2023-11-22T02:49:21;102994.79;;;10.19;78.69
80118;BME280;69424;48.770;-1.564;2023-11-22T02:49:54;102994.42;;;10.19;78.69
80118;BME280;69424;48.770;-1.564;2023-11-22T02:50:28;102998.67;;;10.19;78.80
80118;BME280;69424;48.770;-1.564;2023-11-22T02:51:01;102996.55;;;10.19;78.76
80118;BME280;69424;48.770;-1.564;2023-11-22T02:51:35;102996.70;;;10.19;78.77
80118;BME280;69424;48.770;-1.564;2023-11-22T02:52:08;102995.11;;;10.19;78.89
80118;BME280;69424;48.770;-1.564;2023-11-22T02:52:45;102999.88;;;10.19;78.89
80118;BME280;69424;48.770;-1.564;2023-11-22T02:53:18;102999.56;;;10.19;78.91
80118;BME280;69424;48.770;-1.564;2023-11-22T02:53:54;103000.23;;;10.19;78.98
80118;BME280;69424;48.770;-1.564;2023-11-22T02:54:27;102998.63;;;10.18;78.91
80118;BME280;69424;48.770;-1.564;2023-11-22T02:55:01;102999.52;;;10.18;78.92
80118;BME280;69424;48.770;-1.564;2023-11-22T02:55:35;102998.64;;;10.18;78.85
80118;BME280;69424;48.770;-1.564;2023-11-22T02:56:08;103001.51;;;10.19;78.72
80118;BME280;69424;48.770;-1.564;2023-11-22T02:56:41;103004.94;;;10.21;78.83
80118;BME280;69424;48.770;-1.564;2023-11-22T02:57:15;103003.36;;;10.21;78.71
80118;BME280;69424;48.770;-1.564;2023-11-22T02:57:48;103003.05;;;10.22;78.72
80118;BME280;69424;48.770;-1.564;2023-11-22T02:58:22;103002.75;;;10.23;78.51
80118;BME280;69424;48.770;-1.564;2023-11-22T02:58:55;103004.91;;;10.24;78.47
80118;BME280;69424;48.770;-1.564;2023-11-22T02:59:28;103002.84;;;10.25;78.76